Time;durP1;ratioP1;P1;durP2;ratioP2;P2;SDS_P1;SDS_P2;PMS_P1;PMS_P2;Temp;Humidity;BMP_temperature;BMP_pressure;BME280_temperature;BME280_humidity;BME280_pressure;Samples;Min_cycle;Max_cycle;Signal;HPM_P1;HPM_P2
2022/08/11 00:00:42;;;;;;;6.32;4.60;;;17.10;99.90;;;;;;5107145;27;20181;-84
2022/08/11 00:03:12;;;;;;;9.20;5.68;;;17.10;99.90;;;;;;5108737;27;20063;-85
2022/08/11 00:05:53;;;;;;;7.55;5.07;;;17.10;99.90;;;;;;5091180;27;20130;-84
2022/08/11 00:08:27;;;;;;;6.65;5.30;;;17.00;99.90;;;;;;5107443;27;20039;-84
2022/08/11 00:11:02;;;;;;;8.45;4.82;;;17.00;99.90;;;;;;5109377;27;20426;-85
2022/08/11 00:13:40;;;;;;;11.30;4.70;;;17.00;99.90;;;;;;5107206;27;20436;-85
2022/08/11 00:16:14;;;;;;;9.32;4.45;;;17.00;99.90;;;;;;5108699;27;20043;-84
2022/08/11 00:18:46;;;;;;;5.22;4.15;;;17.40;99.90;;;;;;5108510;27;20108;-85
2022/08/11 00:21:12;;;;;;;6.30;4.78;;;17.00;99.90;;;;;;5107121;27;20498;-85
2022/08/11 00:23:42;;;;;;;7.38;4.82;;;17.00;99.90;;;;;;5091957;27;20456;-84
2022/08/11 00:26:09;;;;;;;5.05;4.55;;;17.00;99.90;;;;;;5106639;27;20039;-85
2022/08/11 00:28:35;;;;;;;10.48;4.90;;;17.10;99.90;;;;;;5108904;28;20047;-84
2022/08/11 00:31:05;;;;;;;6.60;4.60;;;16.90;99.90;;;;;;5108027;28;20134;-84
2022/08/11 00:33:37;;;;;;;9.80;4.75;;;16.90;99.90;;;;;;5107597;27;20031;-84
2022/08/11 00:36:04;;;;;;;9.82;5.47;;;17.10;99.90;;;;;;5090983;27;20252;-85
2022/08/11 00:38:33;;;;;;;8.02;5.55;;;17.90;99.90;;;;;;5090490;27;20043;-84
2022/08/11 00:41:39;;;;;;;6.40;5.10;;;17.50;99.90;;;;;;5092104;28;20039;-85
2022/08/11 00:44:23;;;;;;;6.88;5.07;;;16.80;99.90;;;;;;5107383;28;20043;-84
2022/08/11 00:46:58;;;;;;;7.32;5.00;;;16.70;99.90;;;;;;5089986;28;20180;-85
2022/08/11 00:49:27;;;;;;;7.95;5.00;;;16.70;99.90;;;;;;5108771;28;20049;-84
2022/08/11 00:52:17;;;;;;;7.70;5.25;;;16.70;99.90;;;;;;5089535;28;20059;-84
2022/08/11 00:55:25;;;;;;;6.43;5.22;;;16.70;99.90;;;;;;5108176;28;20039;-84
2022/08/11 00:58:25;;;;;;;7.72;4.40;;;16.70;99.90;;;;;;5087599;27;20054;-85
2022/08/11 01:01:17;;;;;;;6.43;4.43;;;16.60;99.90;;;;;;5110841;27;20051;-85
2022/08/11 01:04:01;;;;;;;10.68;5.53;;;16.60;99.90;;;;;;5064134;27;20132;-85
2022/08/11 01:06:49;;;;;;;7.10;4.43;;;16.60;99.90;;;;;;5095905;27;20038;-85
2022/08/11 01:09:46;;;;;;;6.47;4.57;;;16.30;99.90;;;;;;5110597;27;20043;-85
2022/08/11 01:12:30;;;;;;;14.23;5.32;;;16.50;99.90;;;;;;5094546;27;20039;-85
2022/08/11 01:14:59;;;;;;;5.97;4.55;;;16.50;99.90;;;;;;5095873;27;20639;-84
2022/08/11 01:17:43;;;;;;;5.97;4.38;;;16.50;99.90;;;;;;5093032;27;20077;-85
2022/08/11 01:20:26;;;;;;;6.60;5.10;;;16.60;99.90;;;;;;5112696;27;20047;-84
2022/08/11 01:23:17;;;;;;;7.10;4.28;;;16.50;99.90;;;;;;5094309;27;20080;-85
2022/08/11 01:25:51;;;;;;;7.97;5.10;;;16.40;99.90;;;;;;5110050;27;20043;-84
2022/08/11 01:28:46;;;;;;;7.20;4.80;;;16.40;99.90;;;;;;5112476;27;20047;-85
2022/08/11 01:31:40;;;;;;;4.88;4.20;;;16.40;99.90;;;;;;5090953;27;20051;-84
2022/08/11 01:34:26;;;;;;;8.43;4.32;;;16.30;99.90;;;;;;5093188;27;20417;-84
2022/08/11 01:37:20;;;;;;;5.18;4.40;;;16.30;99.90;;;;;;5095127;27;20399;-84
2022/08/11 01:40:16;;;;;;;6.82;4.03;;;16.30;99.90;;;;;;5110842;27;20055;-84
2022/08/11 01:46:17;;;;;;;7.47;5.15;;;16.20;99.90;;;;;;5112876;27;20480;-85
2022/08/11 01:48:55;;;;;;;5.07;4.55;;;16.10;99.90;;;;;;5111368;27;20405;-84
2022/08/11 01:51:32;;;;;;;5.78;5.13;;;16.20;99.90;;;;;;5109758;27;20545;-84
2022/08/11 01:54:16;;;;;;;7.97;4.72;;;16.10;99.90;;;;;;5095297;27;20039;-84
2022/08/11 01:57:03;;;;;;;6.97;5.05;;;16.10;99.90;;;;;;5110174;27;20501;-84
2022/08/11 01:59:36;;;;;;;7.97;4.75;;;16.00;99.90;;;;;;5110439;27;20505;-85
2022/08/11 02:05:35;;;;;;;7.88;5.13;;;16.00;99.90;;;;;;5110136;27;20039;-84
2022/08/11 02:08:21;;;;;;;6.80;4.50;;;16.00;99.90;;;;;;5110087;27;20043;-84
2022/08/11 02:13:53;;;;;;;9.55;3.70;;;15.90;99.90;;;;;;5109592;27;20111;-84
2022/08/11 02:17:00;;;;;;;8.98;3.92;;;15.90;99.90;;;;;;5110476;27;20517;-84
2022/08/11 02:25:44;;;;;;;7.07;4.45;;;15.80;99.90;;;;;;5109201;27;20055;-85
2022/08/11 02:28:35;;;;;;;5.93;5.07;;;15.70;99.90;;;;;;5111563;27;20043;-85
2022/08/11 02:33:58;;;;;;;6.50;4.18;;;15.70;99.90;;;;;;5109380;27;20073;-84
2022/08/11 02:36:52;;;;;;;4.65;4.05;;;15.60;99.90;;;;;;5111366;27;20078;-84
2022/08/11 02:39:19;;;;;;;6.35;4.82;;;15.60;99.90;;;;;;5091304;27;20051;-84
2022/08/11 02:42:21;;;;;;;7.45;4.80;;;15.50;99.90;;;;;;5076973;27;20050;-85
2022/08/11 02:45:21;;;;;;;8.35;4.70;;;15.50;99.90;;;;;;5111112;27;20051;-84
2022/08/11 02:51:08;;;;;;;6.22;4.38;;;15.40;99.90;;;;;;5109506;27;20088;-85
2022/08/11 02:53:52;;;;;;;6.90;4.65;;;15.40;99.90;;;;;;5111003;27;20043;-84
2022/08/11 02:56:29;;;;;;;7.57;4.40;;;15.80;99.90;;;;;;5092015;27;20596;-84
2022/08/11 03:02:09;;;;;;;7.05;3.88;;;15.40;99.90;;;;;;5109752;27;20066;-84
2022/08/11 03:05:27;;;;;;;4.28;3.88;;;15.40;99.90;;;;;;5107937;27;20050;-84
2022/08/11 03:08:05;;;;;;;5.80;4.15;;;15.30;99.90;;;;;;5047936;27;20521;-84
2022/08/11 03:17:18;;;;;;;6.25;4.00;;;15.30;99.90;;;;;;5108045;27;20433;-84
2022/08/11 03:20:02;;;;;;;5.60;4.15;;;15.20;99.90;;;;;;5093212;27;20423;-83
2022/08/11 03:22:57;;;;;;;6.55;4.05;;;15.20;99.90;;;;;;5108424;27;20126;-84
2022/08/11 03:25:43;;;;;;;5.70;3.88;;;15.20;99.90;;;;;;5091300;27;20058;-84
2022/08/11 03:28:27;;;;;;;7.07;4.28;;;15.20;99.90;;;;;;5110287;27;20490;-84
2022/08/11 03:31:08;;;;;;;8.43;5.10;;;15.10;99.90;;;;;;5091478;27;20058;-84
2022/08/11 03:34:01;;;;;;;7.50;4.55;;;15.10;99.90;;;;;;5091486;27;20043;-84
2022/08/11 03:36:49;;;;;;;5.25;4.47;;;15.10;99.90;;;;;;5110346;27;20039;-84
2022/08/11 03:39:31;;;;;;;7.95;4.63;;;15.00;99.90;;;;;;5107706;27;20035;-84
2022/08/11 03:42:24;;;;;;;6.22;4.28;;;15.00;99.90;;;;;;5092036;27;20054;-84
2022/08/11 03:45:29;;;;;;;5.82;4.38;;;15.00;99.90;;;;;;5092814;27;20497;-84
2022/08/11 03:48:20;;;;;;;12.07;5.43;;;15.00;99.90;;;;;;5108441;27;20031;-84
2022/08/11 03:51:19;;;;;;;6.00;5.05;;;15.00;99.90;;;;;;5091318;27;20045;-84
2022/08/11 03:54:24;;;;;;;7.20;4.95;;;15.00;99.90;;;;;;5109898;27;20061;-84
2022/08/11 03:57:02;;;;;;;10.82;5.05;;;14.90;99.90;;;;;;5057992;27;20055;-84
2022/08/11 03:59:55;;;;;;;7.15;5.28;;;14.90;99.90;;;;;;5107667;27;20134;-84
2022/08/11 04:02:35;;;;;;;10.50;5.27;;;14.90;99.90;;;;;;5092244;27;20139;-84
2022/08/11 04:05:20;;;;;;;7.57;5.03;;;15.30;99.90;;;;;;5106843;27;20058;-84
2022/08/11 04:08:34;;;;;;;6.90;4.72;;;14.90;99.90;;;;;;5107711;27;20043;-84
2022/08/11 04:11:18;;;;;;;;;;;14.80;99.90;;;;;;4991931;28;20123;-85
2022/08/11 04:17:25;;;;;;;6.75;5.18;;;14.80;99.90;;;;;;5106975;27;20575;-85
2022/08/11 04:19:51;;;;;;;6.88;4.85;;;14.90;99.90;;;;;;5109007;27;20043;-84
2022/08/11 04:22:20;;;;;;;7.70;4.95;;;14.90;99.90;;;;;;5107616;27;20080;-85
2022/08/11 04:25:17;;;;;;;12.05;4.80;;;14.80;99.90;;;;;;5108165;27;20054;-84
2022/08/11 04:27:58;;;;;;;7.28;4.50;;;14.90;99.90;;;;;;5108649;27;20068;-88
2022/08/11 04:30:53;;;;;;;6.38;4.88;;;14.80;99.90;;;;;;5106500;27;20494;-87
2022/08/11 04:33:33;;;;;;;7.18;5.20;;;14.90;99.90;;;;;;5107327;27;20486;-87
2022/08/11 04:36:14;;;;;;;12.25;6.22;;;15.00;99.90;;;;;;5091399;27;20046;-87
2022/08/11 04:38:57;;;;;;;9.95;6.80;;;14.90;99.90;;;;;;5089579;27;20126;-87
2022/08/11 04:45:10;;;;;;;7.80;5.78;;;15.00;99.90;;;;;;5072183;28;20053;-88
2022/08/11 05:03:23;;;;;;;14.20;9.27;;;15.30;99.90;;;;;;5107986;28;20055;-85
2022/08/11 05:06:16;;;;;;;10.73;8.27;;;15.40;99.90;;;;;;5108027;28;20390;-85
2022/08/11 05:09:08;;;;;;;12.98;8.75;;;15.40;99.90;;;;;;5089389;28;20402;-84
2022/08/11 05:12:08;;;;;;;16.15;9.45;;;15.40;99.90;;;;;;5108291;28;20527;-83
2022/08/11 05:35:08;;;;;;;12.00;7.70;;;16.90;99.90;;;;;;5091389;28;20569;-84
2022/08/11 05:37:41;;;;;;;9.52;6.88;;;16.60;99.90;;;;;;5106879;28;20521;-85
2022/08/11 05:57:22;;;;;;;8.35;6.03;;;17.30;99.90;;;;;;5089864;28;20473;-85
2022/08/11 05:59:49;;;;;;;9.75;5.57;;;17.40;99.90;;;;;;5087973;28;20071;-85
2022/08/11 06:02:16;;;;;;;10.07;5.80;;;17.50;99.90;;;;;;5089970;28;20051;-83
2022/08/11 06:04:42;;;;;;;11.15;6.15;;;17.60;99.90;;;;;;5087954;28;20465;-83
2022/08/11 06:07:11;;;;;;;8.40;5.65;;;17.70;99.90;;;;;;5089872;28;20131;-83
2022/08/11 06:09:47;;;;;;;13.63;5.35;;;17.80;99.90;;;;;;5088516;28;20044;-83
2022/08/11 06:12:22;;;;;;;12.80;6.07;;;17.90;99.90;;;;;;5108687;27;20112;-83
2022/08/11 06:14:53;;;;;;;8.68;5.55;;;18.00;99.90;;;;;;5111775;27;20047;-83
2022/08/11 06:17:24;;;;;;;10.40;6.35;;;18.10;99.90;;;;;;5109437;27;20476;-83
2022/08/11 06:19:56;;;;;;;8.23;5.43;;;18.20;99.90;;;;;;5111518;27;20046;-83
2022/08/11 06:22:26;;;;;;;11.33;5.37;;;18.30;99.90;;;;;;5109951;27;20126;-83
2022/08/11 06:24:56;;;;;;;12.07;5.28;;;18.40;99.90;;;;;;5110128;27;20059;-82
2022/08/11 06:27:25;;;;;;;11.18;5.43;;;18.50;99.90;;;;;;5093901;27;20054;-83
2022/08/11 06:29:52;;;;;;;10.23;5.45;;;18.50;99.90;;;;;;5092486;27;20371;-83
2022/08/11 06:32:22;;;;;;;12.13;5.38;;;18.60;99.90;;;;;;5094250;27;20043;-82
2022/08/11 06:35:11;;;;;;;13.95;5.68;;;18.70;99.90;;;;;;5109089;27;20052;-83
2022/08/11 06:37:59;;;;;;;8.20;5.05;;;18.80;99.90;;;;;;5109786;27;20088;-87
2022/08/11 06:43:53;;;;;;;8.48;4.68;;;19.00;99.90;;;;;;5108089;27;20501;-86
2022/08/11 06:46:28;;;;;;;10.93;4.50;;;19.10;99.90;;;;;;5092750;27;20048;-86
2022/08/11 06:48:55;;;;;;;8.10;4.35;;;19.20;99.90;;;;;;5093858;27;20046;-86
2022/08/11 06:51:21;;;;;;;10.52;4.47;;;19.10;99.90;;;;;;5074804;27;20122;-85
2022/08/11 06:53:56;;;;;;;6.88;4.13;;;19.40;99.90;;;;;;5110817;27;20522;-86
2022/08/11 07:02:13;;;;;;;7.28;3.85;;;19.70;99.90;;;;;;5106754;28;20055;-86
2022/08/11 07:05:00;;;;;;;6.10;3.92;;;19.90;99.90;;;;;;5087503;28;20658;-86
2022/08/11 07:16:40;;;;;;;9.70;2.95;;;20.50;99.90;;;;;;5104977;28;20046;-86
2022/08/11 07:30:36;;;;;;;10.60;2.15;;;21.10;99.90;;;;;;5104207;28;20047;-86
2022/08/11 07:33:03;;;;;;;6.75;2.72;;;21.30;99.90;;;;;;5088930;28;20051;-86
2022/08/11 07:35:58;;;;;;;3.10;2.63;;;21.40;99.90;;;;;;5105248;28;20079;-86
2022/08/11 07:38:44;;;;;;;8.02;2.38;;;21.50;99.90;;;;;;5083029;28;20395;-86
2022/08/11 07:41:17;;;;;;;4.30;2.80;;;21.60;99.90;;;;;;5089211;28;20134;-86
2022/08/11 07:43:49;;;;;;;4.53;2.60;;;21.70;99.90;;;;;;5087413;28;20051;-86
2022/08/11 07:54:34;;;;;;;4.70;3.00;;;22.20;99.90;;;;;;5105821;28;20455;-87
2022/08/11 08:19:04;;;;;;;5.75;2.20;;;23.20;99.90;;;;;;5106025;28;20105;-86
2022/08/11 08:21:31;;;;;;;10.38;2.45;;;23.40;99.90;;;;;;5103514;28;20448;-86
2022/08/11 08:23:57;;;;;;;5.25;2.10;;;23.50;99.90;;;;;;5105411;28;20056;-86
2022/08/11 08:31:55;;;;;;;7.63;2.72;;;23.80;99.90;;;;;;5105251;28;20051;-86
2022/08/11 08:34:22;;;;;;;4.10;2.30;;;23.90;99.90;;;;;;5086819;28;20487;-86
2022/08/11 08:36:50;;;;;;;6.57;2.63;;;24.00;99.90;;;;;;5071697;28;20085;-87
2022/08/11 08:39:21;;;;;;;5.18;1.95;;;24.20;99.90;;;;;;5087223;28;20117;-87
2022/08/11 08:41:53;;;;;;;4.03;2.50;;;24.30;99.90;;;;;;5070960;28;20078;-87
2022/08/11 08:44:21;;;;;;;2.80;1.98;;;24.50;99.90;;;;;;5104499;28;20059;-86
2022/08/11 08:46:53;;;;;;;3.75;2.20;;;24.60;99.90;;;;;;5069125;28;20486;-86
2022/08/11 08:49:24;;;;;;;4.70;2.30;;;24.70;99.90;;;;;;5088729;28;20040;-86
2022/08/11 08:51:53;;;;;;;3.38;1.90;;;24.90;99.90;;;;;;5102592;28;20047;-86
2022/08/11 08:54:24;;;;;;;5.72;2.00;;;25.10;99.90;;;;;;5071472;28;20495;-86
2022/08/11 08:56:53;;;;;;;3.35;1.70;;;25.20;99.90;;;;;;5103942;28;20042;-86
2022/08/11 08:59:22;;;;;;;2.22;1.55;;;25.30;99.90;;;;;;5104387;28;20039;-87
2022/08/11 09:01:58;;;;;;;3.65;1.20;;;25.50;99.90;;;;;;5104584;28;20465;-86
2022/08/11 09:04:25;;;;;;;4.45;1.38;;;25.60;99.90;;;;;;5102339;28;20058;-86
2022/08/11 09:06:53;;;;;;;8.38;1.13;;;25.80;99.90;;;;;;5088274;28;20135;-86
2022/08/11 09:09:20;;;;;;;2.70;1.00;;;25.90;99.90;;;;;;5103203;28;20078;-87
2022/08/11 09:11:49;;;;;;;0.98;0.82;;;26.00;99.90;;;;;;5087846;28;20420;-87
2022/08/11 09:14:59;;;;;;;5.20;0.95;;;26.20;99.90;;;;;;5087939;28;20044;-86
2022/08/11 09:17:21;;;;;;;1.27;0.80;;;26.30;99.90;;;;;;5102615;28;20040;-86
2022/08/11 09:19:48;;;;;;;3.45;1.20;;;26.50;99.90;;;;;;5090923;28;20075;-86
2022/08/11 09:27:50;;;;;;;4.05;1.20;;;26.80;99.90;;;;;;5109727;28;20096;-86
2022/08/11 09:30:19;;;;;;;1.52;0.80;;;27.00;99.90;;;;;;5089913;28;20086;-86
2022/08/11 09:32:45;;;;;;;2.08;1.20;;;26.90;99.90;;;;;;5092312;28;20352;-87
2022/08/11 09:35:11;;;;;;;2.15;0.70;;;27.00;99.90;;;;;;5090314;28;20441;-86
2022/08/11 09:40:32;;;;;;;1.70;0.77;;;27.10;99.10;;;;;;5108691;28;20110;-86
2022/08/11 09:45:50;;;;;;;3.50;1.00;;;27.30;98.00;;;;;;5108101;28;20050;-86
2022/08/11 09:48:21;;;;;;;1.75;0.90;;;27.40;98.20;;;;;;5073625;28;20046;-86
2022/08/11 09:50:50;;;;;;;1.55;0.63;;;27.50;97.50;;;;;;5106705;28;20078;-86
2022/08/11 09:53:18;;;;;;;1.75;0.73;;;27.50;97.80;;;;;;5108754;28;20403;-85
2022/08/11 09:55:46;;;;;;;1.90;0.70;;;27.70;97.20;;;;;;5105818;28;20490;-86
2022/08/11 09:58:16;;;;;;;2.95;0.70;;;27.70;96.80;;;;;;5091723;28;20506;-86
2022/08/11 10:00:46;;;;;;;1.08;0.70;;;27.90;96.20;;;;;;5089340;28;20458;-86
2022/08/11 10:03:26;;;;;;;1.50;0.68;;;28.00;95.30;;;;;;5090197;28;20176;-87
2022/08/11 10:08:43;;;;;;;2.30;0.75;;;28.20;93.20;;;;;;5105457;28;20094;-86
2022/08/11 10:11:17;;;;;;;3.10;1.05;;;28.30;92.50;;;;;;5058116;28;20090;-86
2022/08/11 10:16:34;;;;;;;1.02;0.60;;;28.50;88.60;;;;;;5106474;28;20092;-86
2022/08/11 10:19:02;;;;;;;1.98;1.00;;;28.50;83.90;;;;;;5090970;28;20077;-86
2022/08/11 10:21:41;;;;;;;0.50;0.38;;;28.60;78.60;;;;;;5088171;28;20505;-86
2022/08/11 10:26:57;;;;;;;1.60;0.70;;;28.70;76.80;;;;;;5106439;28;20498;-87
2022/08/11 10:35:08;;;;;;;3.08;0.88;;;29.10;74.70;;;;;;5105681;28;20090;-86
2022/08/11 10:37:36;;;;;;;2.17;0.75;;;29.20;73.50;;;;;;5089739;28;20059;-87
2022/08/11 10:40:04;;;;;;;0.85;0.40;;;29.20;71.20;;;;;;5107372;28;20398;-87
2022/08/11 10:48:04;;;;;;;1.33;0.65;;;29.40;73.20;;;;;;5105439;28;20249;-86
2022/08/11 10:58:48;;;;;;;2.67;0.73;;;29.80;59.50;;;;;;5106435;28;20505;-86
2022/08/11 11:01:33;;;;;;;2.15;0.90;;;29.80;58.90;;;;;;5108353;27;20134;-86
2022/08/11 11:04:12;;;;;;;7.70;0.60;;;29.80;55.00;;;;;;5091264;27;20047;-86
2022/08/11 11:06:56;;;;;;;2.35;0.80;;;29.80;55.90;;;;;;5110708;27;20051;-86
2022/08/11 11:09:31;;;;;;;2.47;1.08;;;29.80;55.50;;;;;;5108394;27;20090;-86
2022/08/11 11:17:55;;;;;;;2.45;0.98;;;30.00;57.00;;;;;;5093382;27;20627;-87
2022/08/11 11:20:35;;;;;;;3.20;1.10;;;30.10;56.90;;;;;;5110214;27;20117;-86
2022/08/11 11:23:21;;;;;;;1.52;0.82;;;30.00;54.80;;;;;;5109796;27;20082;-86
2022/08/11 11:26:10;;;;;;;3.22;1.02;;;30.10;56.30;;;;;;5107503;27;20049;-87
2022/08/11 11:28:54;;;;;;;3.85;1.23;;;30.20;53.10;;;;;;5110117;27;20472;-86
2022/08/11 11:31:22;;;;;;;1.83;0.80;;;30.30;54.70;;;;;;5092837;27;20602;-87
2022/08/11 11:34:30;;;;;;;1.30;0.80;;;30.40;54.70;;;;;;5108081;27;20043;-87
2022/08/11 11:37:02;;;;;;;1.77;1.00;;;30.50;53.60;;;;;;5109855;27;20054;-87
2022/08/11 11:39:30;;;;;;;1.98;0.90;;;30.50;55.30;;;;;;5091039;27;20091;-87
2022/08/11 11:42:02;;;;;;;1.90;0.80;;;30.50;54.20;;;;;;5091326;27;20092;-87
2022/08/11 11:44:28;;;;;;;1.25;0.55;;;30.60;54.10;;;;;;5092722;27;20153;-86
2022/08/11 11:46:54;;;;;;;1.70;0.75;;;30.70;56.70;;;;;;5107186;27;20039;-86
2022/08/11 11:49:23;;;;;;;1.75;0.85;;;30.80;54.70;;;;;;5109687;27;20043;-86
2022/08/11 11:51:52;;;;;;;1.48;0.70;;;30.80;54.20;;;;;;5107239;27;20046;-87
2022/08/11 11:54:22;;;;;;;0.80;0.43;;;30.80;53.40;;;;;;5109758;27;20426;-88
2022/08/11 11:56:52;;;;;;;1.98;0.70;;;30.90;52.40;;;;;;5108590;27;20129;-88
2022/08/11 12:02:06;;;;;;;4.13;1.02;;;30.40;52.40;;;;;;5109440;27;20855;-87
2022/08/11 12:04:35;;;;;;;1.17;0.47;;;31.20;52.10;;;;;;5106604;27;20047;-88
2022/08/11 12:09:46;;;;;;;2.30;0.68;;;31.20;50.40;;;;;;5094177;27;20095;-88
2022/08/11 12:14:57;;;;;;;0.50;0.40;;;31.20;49.40;;;;;;5110010;27;20047;-88
2022/08/11 12:17:23;;;;;;;1.25;0.70;;;31.20;50.20;;;;;;5056406;27;20066;-88
2022/08/11 12:19:50;;;;;;;1.10;0.50;;;31.30;49.70;;;;;;5092101;27;20039;-88
2022/08/11 12:27:50;;;;;;;1.63;0.50;;;31.60;49.30;;;;;;5095026;27;20043;-87
2022/08/11 12:30:18;;;;;;;1.55;0.70;;;31.60;48.80;;;;;;5106826;27;20486;-88
2022/08/11 12:32:44;;;;;;;1.63;0.60;;;31.70;49.30;;;;;;5074886;27;20530;-87
2022/08/11 12:35:13;;;;;;;6.90;0.82;;;31.70;49.10;;;;;;5073693;28;20053;-87
2022/08/11 12:37:51;;;;;;;4.85;0.90;;;31.70;49.10;;;;;;5108009;27;20165;-88
2022/08/11 12:45:59;;;;;;;;;;;31.70;48.70;;;;;;5108496;28;20085;-87
2022/08/11 12:54:11;;;;;;;;;;;31.70;48.00;;;;;;5111162;27;20149;-86
2022/08/11 13:05:05;;;;;;;1.17;0.52;;;31.90;47.80;;;;;;5110826;27;20043;-87
2022/08/11 13:07:32;;;;;;;1.83;0.63;;;31.90;48.10;;;;;;5094989;27;20035;-87
2022/08/11 13:10:04;;;;;;;2.72;0.75;;;31.90;48.10;;;;;;5096141;27;20451;-87
2022/08/11 13:12:49;;;;;;;2.90;0.52;;;32.00;47.70;;;;;;5086186;27;20039;-86
2022/08/11 13:15:24;;;;;;;3.58;0.65;;;32.00;47.40;;;;;;5095605;27;20085;-87
2022/08/11 13:17:52;;;;;;;2.67;0.75;;;32.10;46.80;;;;;;5094017;27;20039;-87
2022/08/11 13:20:23;;;;;;;1.65;0.70;;;32.10;46.50;;;;;;5078036;27;20126;-88
2022/08/11 13:22:51;;;;;;;1.33;0.60;;;32.10;46.20;;;;;;5095235;27;20047;-87
2022/08/11 13:25:20;;;;;;;2.13;0.60;;;32.10;45.40;;;;;;5109807;27;20051;-88
2022/08/11 13:27:48;;;;;;;18.88;3.22;;;32.20;45.40;;;;;;5113028;27;20047;-87
2022/08/11 13:33:03;;;;;;;2.08;0.57;;;32.20;45.70;;;;;;5111817;27;20405;-87
2022/08/11 13:35:31;;;;;;;2.25;0.85;;;32.30;45.60;;;;;;5094602;27;20046;-86
2022/08/11 13:38:01;;;;;;;0.88;0.40;;;32.30;45.00;;;;;;5092563;27;20406;-87
2022/08/11 13:40:28;;;;;;;3.22;0.60;;;32.10;45.00;;;;;;5112957;27;20117;-86
2022/08/11 13:42:54;;;;;;;7.53;0.60;;;32.40;44.20;;;;;;5059028;27;20050;-86
2022/08/11 13:45:22;;;;;;;2.63;0.52;;;32.50;43.70;;;;;;5078352;27;20092;-86
2022/08/11 13:47:50;;;;;;;3.40;0.68;;;32.50;43.50;;;;;;5092898;27;20126;-86
2022/08/11 13:50:17;;;;;;;3.03;0.60;;;32.60;44.00;;;;;;5094423;27;20058;-86
2022/08/11 13:52:45;;;;;;;4.43;1.67;;;32.60;44.60;;;;;;5061904;27;20402;-87
2022/08/11 13:55:30;;;;;;;3.67;0.75;;;32.60;44.00;;;;;;5109667;27;20039;-87
2022/08/11 13:57:56;;;;;;;2.22;0.60;;;32.50;43.80;;;;;;5094861;27;20085;-88
2022/08/11 14:00:22;;;;;;;1.65;0.65;;;32.60;43.90;;;;;;5076347;27;20504;-86
2022/08/11 14:02:49;;;;;;;1.75;0.85;;;32.60;43.60;;;;;;5093920;27;20119;-87
2022/08/11 14:05:21;;;;;;;1.30;0.65;;;32.60;43.40;;;;;;5110048;27;20498;-87
2022/08/11 14:07:55;;;;;;;0.98;0.50;;;32.60;43.60;;;;;;5109405;27;20122;-85
2022/08/11 14:10:27;;;;;;;3.65;1.00;;;32.60;43.70;;;;;;5112234;27;20043;-86
2022/08/11 14:15:46;;;;;;;1.45;0.70;;;32.60;43.40;;;;;;5110604;27;20058;-86
2022/08/11 14:18:24;;;;;;;1.83;0.93;;;32.60;43.60;;;;;;5110550;27;20051;-86
2022/08/11 14:23:47;;;;;;;0.68;0.65;;;32.70;43.60;;;;;;5110759;27;20505;-86
2022/08/11 14:26:28;;;;;;;3.60;1.27;;;32.80;44.30;;;;;;5092449;27;20394;-86
2022/08/11 14:29:01;;;;;;;2.38;0.80;;;32.90;44.90;;;;;;5110029;27;20043;-86
2022/08/11 14:31:30;;;;;;;1.63;0.90;;;32.90;45.00;;;;;;5110984;27;20051;-87
2022/08/11 14:34:01;;;;;;;1.52;0.60;;;33.20;45.30;;;;;;5091427;27;20039;-86
2022/08/11 14:36:30;;;;;;;3.05;0.70;;;33.00;45.20;;;;;;5094238;27;20647;-87
2022/08/11 14:38:56;;;;;;;3.25;0.82;;;32.80;45.40;;;;;;5092403;27;20488;-87
2022/08/11 14:47:04;;;;;;;2.08;0.38;;;32.60;45.70;;;;;;5081144;27;20100;-87
2022/08/11 14:49:37;;;;;;;6.45;0.82;;;32.50;46.30;;;;;;5099289;27;20074;-87
2022/08/11 14:52:07;;;;;;;7.88;1.55;;;32.50;46.40;;;;;;5113021;27;20035;-87
2022/08/11 14:57:20;;;;;;;1.13;0.73;;;32.30;45.80;;;;;;5111223;27;20046;-87
2022/08/11 14:59:49;;;;;;;2.00;0.70;;;32.10;45.90;;;;;;5091005;27;20482;-89
2022/08/11 15:05:04;;;;;;;3.67;0.85;;;31.80;46.40;;;;;;5108735;27;20047;-87
2022/08/11 15:07:33;;;;;;;2.13;0.60;;;31.80;46.70;;;;;;5092458;27;20043;-87
2022/08/11 15:10:05;;;;;;;3.10;1.15;;;31.90;46.90;;;;;;5093433;27;20031;-88
2022/08/11 15:12:32;;;;;;;4.38;1.23;;;31.90;46.70;;;;;;5073567;27;20047;-87
2022/08/11 15:17:46;;;;;;;5.78;0.80;;;31.60;47.30;;;;;;5079313;27;20481;-85
2022/08/11 15:25:50;;;;;;;8.05;0.75;;;31.70;46.70;;;;;;5093377;27;20051;-86
2022/08/11 15:39:26;;;;;;;6.72;1.52;;;31.30;47.60;;;;;;5108384;27;20047;-86
2022/08/11 15:47:56;;;;;;;3.08;1.20;;;31.10;48.20;;;;;;5107777;27;20522;-86
2022/08/11 15:50:29;;;;;;;1.67;0.77;;;31.00;48.60;;;;;;5091273;27;20132;-86
2022/08/11 15:53:06;;;;;;;1.70;1.00;;;30.80;48.60;;;;;;5109707;27;20050;-86
2022/08/11 15:55:34;;;;;;;2.58;0.93;;;30.50;48.60;;;;;;5090497;27;20662;-86
2022/08/11 16:04:10;;;;;;;2.65;0.98;;;29.80;50.30;;;;;;5093038;27;20155;-86
2022/08/11 16:07:10;;;;;;;3.60;0.85;;;29.60;50.60;;;;;;5128151;27;20466;-87
2022/08/11 16:09:56;;;;;;;2.80;1.02;;;29.40;50.90;;;;;;5108785;27;20035;-87
2022/08/11 16:12:27;;;;;;;4.32;1.40;;;29.20;51.20;;;;;;5107097;27;20043;-86
2022/08/11 16:17:47;;;;;;;2.53;1.00;;;28.80;52.50;;;;;;5107344;27;20110;-87
2022/08/11 16:20:17;;;;;;;1.85;0.73;;;28.70;52.80;;;;;;5108560;27;20398;-85
2022/08/11 16:22:46;;;;;;;6.10;0.90;;;28.50;53.20;;;;;;5109050;27;20057;-87
2022/08/11 16:25:15;;;;;;;7.47;1.52;;;28.40;53.50;;;;;;5106676;27;20248;-86
2022/08/11 16:27:44;;;;;;;3.08;0.77;;;28.30;54.00;;;;;;5092540;27;20482;-85
2022/08/11 16:30:10;;;;;;;4.53;1.15;;;28.20;54.50;;;;;;5125439;27;20397;-86
2022/08/11 16:32:40;;;;;;;2.80;1.05;;;28.10;54.80;;;;;;5108716;27;20130;-84
2022/08/11 16:40:41;;;;;;;3.20;0.95;;;27.80;56.20;;;;;;5109393;27;20039;-85
2022/08/11 16:49:11;;;;;;;1.67;1.02;;;27.50;58.40;;;;;;5046766;28;20698;-87
2022/08/11 16:51:37;;;;;;;1.60;0.75;;;27.40;59.70;;;;;;5027881;28;20496;-85
2022/08/11 16:54:03;;;;;;;4.70;0.90;;;27.30;60.90;;;;;;5078760;28;20047;-86
2022/08/11 16:56:44;;;;;;;3.72;1.13;;;27.30;62.30;;;;;;5125770;28;20049;-84
2022/08/11 16:59:37;;;;;;;1.73;0.82;;;27.30;64.00;;;;;;5089343;28;20122;-87
2022/08/11 17:13:41;;;;;;;3.33;1.00;;;26.70;71.40;;;;;;5107044;28;20073;-86
2022/08/11 17:16:12;;;;;;;2.50;1.27;;;26.60;73.70;;;;;;5108152;28;20114;-86
2022/08/11 17:19:27;;;;;;;3.27;1.07;;;26.60;75.50;;;;;;5077334;28;20035;-86
2022/08/11 17:24:44;;;;;;;2.15;1.02;;;26.40;78.40;;;;;;5094279;28;20539;-84
2022/08/11 17:27:17;;;;;;;3.85;1.10;;;26.30;81.00;;;;;;5093859;28;20538;-84
2022/08/11 17:29:58;;;;;;;2.00;1.10;;;26.30;82.40;;;;;;5106264;28;20051;-84
2022/08/11 17:35:33;;;;;;;5.22;1.00;;;26.20;87.40;;;;;;5108897;28;20130;-84
2022/08/11 17:38:14;;;;;;;2.97;1.52;;;26.10;88.00;;;;;;5091197;28;20035;-85
2022/08/11 17:49:10;;;;;;;2.55;1.20;;;25.90;90.70;;;;;;5100741;27;20440;-85
2022/08/11 17:59:56;;;;;;;5.55;1.70;;;25.70;91.90;;;;;;5128920;27;20050;-84
2022/08/11 18:05:34;;;;;;;2.00;0.93;;;25.50;92.90;;;;;;5110115;28;20439;-83
